sensor_id;sensor_type;location;lat;lon;timestamp;pressure;altitude;pressure_sealevel;temperature;humidity
59939;BME280;45801;51.810;19.444;2023-02-18T00:00:27;98331.56;;;6.73;60.93
59939;BME280;45801;51.810;19.444;2023-02-18T00:03:14;98335.39;;;6.73;60.98
59939;BME280;45801;51.810;19.444;2023-02-18T00:05:40;98345.65;;;6.73;60.37
59939;BME280;45801;51.810;19.444;2023-02-18T00:08:07;98352.38;;;6.68;60.22
59939;BME280;45801;51.810;19.444;2023-02-18T00:10:33;98358.54;;;6.61;59.67
59939;BME280;45801;51.810;19.444;2023-02-18T00:12:59;98358.39;;;6.58;58.82
59939;BME280;45801;51.810;19.444;2023-02-18T00:15:26;98368.52;;;6.51;57.84
59939;BME280;45801;51.810;19.444;2023-02-18T00:17:53;98370.03;;;6.50;58.18
59939;BME280;45801;51.810;19.444;2023-02-18T00:20:19;98372.86;;;6.51;58.61
59939;BME280;45801;51.810;19.444;2023-02-18T00:22:46;98379.69;;;6.52;58.93
59939;BME280;45801;51.810;19.444;2023-02-18T00:25:12;98381.96;;;6.48;59.05
59939;BME280;45801;51.810;19.444;2023-02-18T00:27:39;98381.24;;;6.44;58.14
59939;BME280;45801;51.810;19.444;2023-02-18T00:30:06;98383.76;;;6.42;58.50
59939;BME280;45801;51.810;19.444;2023-02-18T00:32:35;98385.11;;;6.37;58.71
59939;BME280;45801;51.810;19.444;2023-02-18T00:35:02;98392.83;;;6.31;59.32
59939;BME280;45801;51.810;19.444;2023-02-18T00:37:29;98394.91;;;6.27;59.33
59939;BME280;45801;51.810;19.444;2023-02-18T00:39:55;98397.46;;;6.26;59.42
59939;BME280;45801;51.810;19.444;2023-02-18T00:42:21;98399.41;;;6.27;59.23
59939;BME280;45801;51.810;19.444;2023-02-18T00:44:48;98400.17;;;6.24;58.78
59939;BME280;45801;51.810;19.444;2023-02-18T00:47:15;98396.68;;;6.20;58.34
59939;BME280;45801;51.810;19.444;2023-02-18T00:49:41;98394.09;;;6.21;58.68
59939;BME280;45801;51.810;19.444;2023-02-18T00:52:08;98401.20;;;6.20;58.34
59939;BME280;45801;51.810;19.444;2023-02-18T00:54:34;98392.96;;;6.15;58.21
59939;BME280;45801;51.810;19.444;2023-02-18T00:57:01;98397.88;;;6.12;58.58
59939;BME280;45801;51.810;19.444;2023-02-18T00:59:27;98390.18;;;6.11;58.99
59939;BME280;45801;51.810;19.444;2023-02-18T01:01:53;98389.95;;;6.10;59.11
59939;BME280;45801;51.810;19.444;2023-02-18T01:04:20;98393.23;;;6.03;59.36
59939;BME280;45801;51.810;19.444;2023-02-18T01:06:47;98398.80;;;6.02;59.90
59939;BME280;45801;51.810;19.444;2023-02-18T01:09:14;98402.29;;;6.03;60.71
59939;BME280;45801;51.810;19.444;2023-02-18T01:11:41;98404.67;;;6.09;61.61
59939;BME280;45801;51.810;19.444;2023-02-18T01:14:07;98401.00;;;6.16;61.89
59939;BME280;45801;51.810;19.444;2023-02-18T01:16:34;98394.51;;;6.18;61.49
59939;BME280;45801;51.810;19.444;2023-02-18T01:19:01;98392.14;;;6.16;60.61
59939;BME280;45801;51.810;19.444;2023-02-18T01:21:28;98391.52;;;6.10;60.52
59939;BME280;45801;51.810;19.444;2023-02-18T01:23:54;98388.10;;;6.04;60.50
59939;BME280;45801;51.810;19.444;2023-02-18T01:26:21;98388.75;;;5.99;60.80
59939;BME280;45801;51.810;19.444;2023-02-18T01:28:47;98390.53;;;5.97;60.80
59939;BME280;45801;51.810;19.444;2023-02-18T01:31:14;98393.86;;;5.91;61.05
59939;BME280;45801;51.810;19.444;2023-02-18T01:33:42;98394.89;;;5.90;61.31
59939;BME280;45801;51.810;19.444;2023-02-18T01:36:10;98399.19;;;5.93;61.56
59939;BME280;45801;51.810;19.444;2023-02-18T01:38:37;98395.64;;;5.88;61.17
59939;BME280;45801;51.810;19.444;2023-02-18T01:41:05;98395.27;;;5.91;61.13
59939;BME280;45801;51.810;19.444;2023-02-18T01:43:32;98396.23;;;5.93;61.72
59939;BME280;45801;51.810;19.444;2023-02-18T01:46:02;98399.59;;;5.87;61.74
59939;BME280;45801;51.810;19.444;2023-02-18T01:48:50;98398.31;;;5.75;61.42
59939;BME280;45801;51.810;19.444;2023-02-18T01:51:28;98401.83;;;5.72;61.54
59939;BME280;45801;51.810;19.444;2023-02-18T01:54:14;98408.21;;;5.64;60.67
59939;BME280;45801;51.810;19.444;2023-02-18T01:56:56;98412.06;;;5.61;60.27
59939;BME280;45801;51.810;19.444;2023-02-18T01:59:39;98411.46;;;5.63;60.62
59939;BME280;45801;51.810;19.444;2023-02-18T02:02:09;98414.84;;;5.65;61.04
59939;BME280;45801;51.810;19.444;2023-02-18T02:04:36;98415.52;;;5.64;60.11
59939;BME280;45801;51.810;19.444;2023-02-18T02:07:03;98416.11;;;5.62;59.81
59939;BME280;45801;51.810;19.444;2023-02-18T02:09:31;98411.66;;;5.60;59.37
59939;BME280;45801;51.810;19.444;2023-02-18T02:12:31;98403.71;;;5.61;59.62
59939;BME280;45801;51.810;19.444;2023-02-18T02:23:29;98405.59;;;5.64;60.98
59939;BME280;45801;51.810;19.444;2023-02-18T02:29:33;98398.34;;;5.61;61.29
59939;BME280;45801;51.810;19.444;2023-02-18T02:32:09;98401.26;;;5.60;61.85
59939;BME280;45801;51.810;19.444;2023-02-18T02:34:53;98401.56;;;5.49;62.45
59939;BME280;45801;51.810;19.444;2023-02-18T02:37:50;98410.55;;;5.41;62.56
59939;BME280;45801;51.810;19.444;2023-02-18T02:48:41;98404.61;;;5.41;63.29
59939;BME280;45801;51.810;19.444;2023-02-18T02:51:19;98415.13;;;5.35;63.41
59939;BME280;45801;51.810;19.444;2023-02-18T02:53:49;98422.31;;;5.37;63.37
59939;BME280;45801;51.810;19.444;2023-02-18T02:56:22;98430.36;;;5.38;63.22
59939;BME280;45801;51.810;19.444;2023-02-18T02:58:58;98431.15;;;5.29;63.04
59939;BME280;45801;51.810;19.444;2023-02-18T03:16:01;98452.17;;;5.10;64.13
59939;BME280;45801;51.810;19.444;2023-02-18T03:18:37;98449.85;;;5.08;64.14
59939;BME280;45801;51.810;19.444;2023-02-18T03:21:09;98449.86;;;5.08;64.28
59939;BME280;45801;51.810;19.444;2023-02-18T03:23:43;98453.92;;;5.03;64.34
59939;BME280;45801;51.810;19.444;2023-02-18T03:26:12;98460.53;;;5.07;64.33
59939;BME280;45801;51.810;19.444;2023-02-18T03:28:42;98460.14;;;5.06;64.19
59939;BME280;45801;51.810;19.444;2023-02-18T03:31:13;98460.45;;;5.05;64.40
59939;BME280;45801;51.810;19.444;2023-02-18T03:33:50;98453.50;;;5.05;64.33
59939;BME280;45801;51.810;19.444;2023-02-18T03:36:19;98459.30;;;5.13;64.22
59939;BME280;45801;51.810;19.444;2023-02-18T03:38:59;98462.46;;;5.17;64.08
59939;BME280;45801;51.810;19.444;2023-02-18T03:41:26;98463.90;;;5.08;64.48
59939;BME280;45801;51.810;19.444;2023-02-18T03:43:59;98467.71;;;5.02;64.90
59939;BME280;45801;51.810;19.444;2023-02-18T03:46:28;98480.09;;;5.06;64.94
59939;BME280;45801;51.810;19.444;2023-02-18T03:48:55;98484.77;;;5.05;64.90
59939;BME280;45801;51.810;19.444;2023-02-18T03:51:22;98490.14;;;5.05;64.98
59939;BME280;45801;51.810;19.444;2023-02-18T03:53:49;98495.05;;;4.97;65.22
59939;BME280;45801;51.810;19.444;2023-02-18T03:56:15;98504.05;;;4.89;65.62
59939;BME280;45801;51.810;19.444;2023-02-18T03:58:43;98500.70;;;4.85;65.62
59939;BME280;45801;51.810;19.444;2023-02-18T04:01:10;98502.73;;;4.85;65.97
59939;BME280;45801;51.810;19.444;2023-02-18T04:03:36;98511.48;;;4.85;66.12
59939;BME280;45801;51.810;19.444;2023-02-18T04:06:03;98515.85;;;4.86;66.13
59939;BME280;45801;51.810;19.444;2023-02-18T04:08:30;98521.91;;;4.92;66.34
59939;BME280;45801;51.810;19.444;2023-02-18T04:10:56;98523.79;;;4.95;66.28
59939;BME280;45801;51.810;19.444;2023-02-18T04:13:23;98519.41;;;4.97;66.21
59939;BME280;45801;51.810;19.444;2023-02-18T04:15:50;98521.55;;;5.02;65.99
59939;BME280;45801;51.810;19.444;2023-02-18T04:18:17;98522.34;;;5.01;65.96
59939;BME280;45801;51.810;19.444;2023-02-18T04:20:44;98522.54;;;5.07;65.72
59939;BME280;45801;51.810;19.444;2023-02-18T04:23:11;98526.41;;;5.09;65.78
59939;BME280;45801;51.810;19.444;2023-02-18T04:25:38;98530.83;;;5.07;65.60
59939;BME280;45801;51.810;19.444;2023-02-18T04:28:04;98525.45;;;5.00;65.88
59939;BME280;45801;51.810;19.444;2023-02-18T04:30:32;98528.88;;;4.96;65.96
59939;BME280;45801;51.810;19.444;2023-02-18T04:32:58;98530.73;;;4.99;65.71
59939;BME280;45801;51.810;19.444;2023-02-18T04:35:25;98524.70;;;4.99;65.72
59939;BME280;45801;51.810;19.444;2023-02-18T04:37:52;98522.10;;;4.96;65.80
59939;BME280;45801;51.810;19.444;2023-02-18T04:40:18;98518.54;;;4.98;65.69
59939;BME280;45801;51.810;19.444;2023-02-18T04:42:44;98525.06;;;5.00;65.65
59939;BME280;45801;51.810;19.444;2023-02-18T04:45:11;98522.13;;;5.00;65.66
59939;BME280;45801;51.810;19.444;2023-02-18T04:47:38;98524.95;;;4.97;65.65
59939;BME280;45801;51.810;19.444;2023-02-18T04:50:05;98525.58;;;5.00;65.52
59939;BME280;45801;51.810;19.444;2023-02-18T04:52:31;98520.64;;;4.98;65.57
59939;BME280;45801;51.810;19.444;2023-02-18T04:54:58;98516.81;;;4.98;65.69
59939;BME280;45801;51.810;19.444;2023-02-18T04:57:24;98521.81;;;4.97;65.64
59939;BME280;45801;51.810;19.444;2023-02-18T04:59:51;98528.59;;;5.01;65.48
59939;BME280;45801;51.810;19.444;2023-02-18T05:02:17;98533.55;;;5.02;65.26
59939;BME280;45801;51.810;19.444;2023-02-18T05:04:44;98534.19;;;4.98;65.57
59939;BME280;45801;51.810;19.444;2023-02-18T05:07:11;98533.89;;;4.99;65.60
59939;BME280;45801;51.810;19.444;2023-02-18T05:09:38;98530.62;;;4.93;65.47
59939;BME280;45801;51.810;19.444;2023-02-18T05:12:05;98532.26;;;4.91;65.40
59939;BME280;45801;51.810;19.444;2023-02-18T05:14:31;98536.41;;;4.94;65.45
59939;BME280;45801;51.810;19.444;2023-02-18T05:16:58;98542.11;;;4.91;65.62
59939;BME280;45801;51.810;19.444;2023-02-18T05:19:24;98543.79;;;4.86;65.83
59939;BME280;45801;51.810;19.444;2023-02-18T05:21:51;98535.67;;;4.84;65.80
59939;BME280;45801;51.810;19.444;2023-02-18T05:24:17;98533.18;;;4.86;65.77
59939;BME280;45801;51.810;19.444;2023-02-18T05:26:44;98539.23;;;4.82;65.87
59939;BME280;45801;51.810;19.444;2023-02-18T05:29:10;98544.96;;;4.85;65.69
59939;BME280;45801;51.810;19.444;2023-02-18T05:31:37;98541.41;;;4.81;65.86
59939;BME280;45801;51.810;19.444;2023-02-18T05:34:04;98545.34;;;4.77;66.19
59939;BME280;45801;51.810;19.444;2023-02-18T05:36:30;98536.59;;;4.78;66.22
59939;BME280;45801;51.810;19.444;2023-02-18T05:38:57;98542.20;;;4.79;66.31
59939;BME280;45801;51.810;19.444;2023-02-18T05:41:23;98556.95;;;4.79;66.28
59939;BME280;45801;51.810;19.444;2023-02-18T05:43:50;98553.79;;;4.82;66.33
59939;BME280;45801;51.810;19.444;2023-02-18T05:46:36;98552.23;;;4.75;66.33
59939;BME280;45801;51.810;19.444;2023-02-18T05:49:02;98552.85;;;4.77;66.55
59939;BME280;45801;51.810;19.444;2023-02-18T05:51:29;98554.92;;;4.77;66.43
59939;BME280;45801;51.810;19.444;2023-02-18T05:53:55;98562.43;;;4.78;66.04
59939;BME280;45801;51.810;19.444;2023-02-18T05:56:22;98566.39;;;4.78;65.85
59939;BME280;45801;51.810;19.444;2023-02-18T05:58:48;98577.25;;;4.73;66.28
59939;BME280;45801;51.810;19.444;2023-02-18T06:01:15;98569.75;;;4.75;66.23
59939;BME280;45801;51.810;19.444;2023-02-18T06:03:42;98568.30;;;4.68;66.24
59939;BME280;45801;51.810;19.444;2023-02-18T06:06:09;98572.66;;;4.63;66.74
59939;BME280;45801;51.810;19.444;2023-02-18T06:08:36;98570.11;;;4.60;66.96
59939;BME280;45801;51.810;19.444;2023-02-18T06:11:02;98574.98;;;4.57;67.07
59939;BME280;45801;51.810;19.444;2023-02-18T06:13:29;98571.70;;;4.64;67.03
59939;BME280;45801;51.810;19.444;2023-02-18T06:15:55;98575.50;;;4.63;66.97
59939;BME280;45801;51.810;19.444;2023-02-18T06:18:22;98578.75;;;4.63;67.13
59939;BME280;45801;51.810;19.444;2023-02-18T06:20:50;98585.31;;;4.62;67.21
59939;BME280;45801;51.810;19.444;2023-02-18T06:23:16;98576.98;;;4.56;67.09
59939;BME280;45801;51.810;19.444;2023-02-18T06:25:42;98578.06;;;4.53;67.33
59939;BME280;45801;51.810;19.444;2023-02-18T06:28:09;98590.41;;;4.51;67.18
59939;BME280;45801;51.810;19.444;2023-02-18T06:30:35;98590.36;;;4.56;67.21
59939;BME280;45801;51.810;19.444;2023-02-18T06:33:03;98592.23;;;4.53;67.78
59939;BME280;45801;51.810;19.444;2023-02-18T06:35:30;98586.08;;;4.54;67.43
59939;BME280;45801;51.810;19.444;2023-02-18T06:37:57;98576.73;;;4.51;67.34
59939;BME280;45801;51.810;19.444;2023-02-18T06:40:23;98586.64;;;4.52;67.13
59939;BME280;45801;51.810;19.444;2023-02-18T06:42:50;98581.09;;;4.58;67.08
59939;BME280;45801;51.810;19.444;2023-02-18T06:45:16;98587.27;;;4.60;67.00
59939;BME280;45801;51.810;19.444;2023-02-18T06:47:45;98584.79;;;4.59;66.83
59939;BME280;45801;51.810;19.444;2023-02-18T06:50:12;98587.64;;;4.57;66.84
59939;BME280;45801;51.810;19.444;2023-02-18T06:52:39;98584.98;;;4.59;66.96
59939;BME280;45801;51.810;19.444;2023-02-18T06:55:07;98588.75;;;4.65;66.88
59939;BME280;45801;51.810;19.444;2023-02-18T06:57:34;98590.95;;;4.64;66.61
59939;BME280;45801;51.810;19.444;2023-02-18T07:00:01;98587.65;;;4.67;66.65
59939;BME280;45801;51.810;19.444;2023-02-18T07:02:28;98595.60;;;4.63;66.46
59939;BME280;45801;51.810;19.444;2023-02-18T07:04:54;98597.39;;;4.52;66.43
59939;BME280;45801;51.810;19.444;2023-02-18T07:07:20;98601.09;;;4.53;66.44
59939;BME280;45801;51.810;19.444;2023-02-18T07:09:47;98608.52;;;4.50;66.57
59939;BME280;45801;51.810;19.444;2023-02-18T07:12:13;98608.25;;;4.51;66.42
59939;BME280;45801;51.810;19.444;2023-02-18T07:14:40;98613.61;;;4.44;66.39
59939;BME280;45801;51.810;19.444;2023-02-18T07:17:06;98616.42;;;4.42;66.66
59939;BME280;45801;51.810;19.444;2023-02-18T07:19:33;98625.36;;;4.50;66.58
59939;BME280;45801;51.810;19.444;2023-02-18T07:21:59;98628.15;;;4.56;66.67
59939;BME280;45801;51.810;19.444;2023-02-18T07:24:26;98636.41;;;4.55;66.53
59939;BME280;45801;51.810;19.444;2023-02-18T07:26:53;98644.21;;;4.61;66.44
59939;BME280;45801;51.810;19.444;2023-02-18T07:29:19;98638.64;;;4.64;66.43
59939;BME280;45801;51.810;19.444;2023-02-18T07:31:46;98642.34;;;4.65;66.53
59939;BME280;45801;51.810;19.444;2023-02-18T07:34:12;98639.19;;;4.61;66.43
59939;BME280;45801;51.810;19.444;2023-02-18T07:36:39;98631.66;;;4.69;66.09
59939;BME280;45801;51.810;19.444;2023-02-18T07:39:05;98632.80;;;4.74;65.96
59939;BME280;45801;51.810;19.444;2023-02-18T07:41:32;98636.49;;;4.72;65.81
59939;BME280;45801;51.810;19.444;2023-02-18T07:43:58;98637.40;;;4.69;65.93
59939;BME280;45801;51.810;19.444;2023-02-18T07:46:25;98637.40;;;4.72;65.97
59939;BME280;45801;51.810;19.444;2023-02-18T07:48:51;98635.07;;;4.77;65.93
59939;BME280;45801;51.810;19.444;2023-02-18T07:51:18;98636.90;;;4.73;65.69
59939;BME280;45801;51.810;19.444;2023-02-18T07:53:44;98639.92;;;4.77;65.63
59939;BME280;45801;51.810;19.444;2023-02-18T07:56:11;98627.86;;;4.82;65.59
59939;BME280;45801;51.810;19.444;2023-02-18T07:58:38;98637.31;;;4.86;65.78
59939;BME280;45801;51.810;19.444;2023-02-18T08:01:07;98639.05;;;4.89;66.03
59939;BME280;45801;51.810;19.444;2023-02-18T08:03:34;98634.45;;;4.94;65.27
59939;BME280;45801;51.810;19.444;2023-02-18T08:06:02;98633.59;;;5.00;64.74
59939;BME280;45801;51.810;19.444;2023-02-18T08:08:30;98635.02;;;4.92;64.87
59939;BME280;45801;51.810;19.444;2023-02-18T08:11:00;98639.10;;;4.81;65.73
59939;BME280;45801;51.810;19.444;2023-02-18T08:13:32;98635.27;;;4.90;65.59
59939;BME280;45801;51.810;19.444;2023-02-18T08:15:59;98633.92;;;4.91;65.05
59939;BME280;45801;51.810;19.444;2023-02-18T08:18:25;98639.17;;;4.92;65.41
59939;BME280;45801;51.810;19.444;2023-02-18T08:20:53;98631.60;;;4.90;65.38
59939;BME280;45801;51.810;19.444;2023-02-18T08:23:22;98631.11;;;4.93;65.61
59939;BME280;45801;51.810;19.444;2023-02-18T08:25:52;98639.16;;;4.94;65.78
59939;BME280;45801;51.810;19.444;2023-02-18T08:28:21;98632.88;;;5.00;65.65
59939;BME280;45801;51.810;19.444;2023-02-18T08:30:50;98639.55;;;5.05;65.38
59939;BME280;45801;51.810;19.444;2023-02-18T08:33:18;98638.88;;;5.05;65.20
59939;BME280;45801;51.810;19.444;2023-02-18T08:35:46;98635.20;;;5.05;65.38
59939;BME280;45801;51.810;19.444;2023-02-18T08:38:13;98638.74;;;5.09;65.53
59939;BME280;45801;51.810;19.444;2023-02-18T08:40:40;98637.98;;;5.21;65.22
59939;BME280;45801;51.810;19.444;2023-02-18T08:43:08;98637.62;;;5.23;64.99
59939;BME280;45801;51.810;19.444;2023-02-18T08:45:36;98638.70;;;5.27;64.54
59939;BME280;45801;51.810;19.444;2023-02-18T08:48:05;98640.89;;;5.29;64.17
59939;BME280;45801;51.810;19.444;2023-02-18T08:50:32;98638.63;;;5.32;63.93
59939;BME280;45801;51.810;19.444;2023-02-18T08:52:59;98646.73;;;5.31;63.42
59939;BME280;45801;51.810;19.444;2023-02-18T08:55:29;98642.55;;;5.35;63.96
59939;BME280;45801;51.810;19.444;2023-02-18T08:57:58;98645.28;;;5.37;63.81
59939;BME280;45801;51.810;19.444;2023-02-18T09:00:26;98645.91;;;5.39;63.67
59939;BME280;45801;51.810;19.444;2023-02-18T09:02:52;98652.55;;;5.30;63.54
59939;BME280;45801;51.810;19.444;2023-02-18T09:05:19;98659.45;;;5.29;63.68
59939;BME280;45801;51.810;19.444;2023-02-18T09:07:46;98660.16;;;5.32;63.80
59939;BME280;45801;51.810;19.444;2023-02-18T09:10:13;98650.48;;;5.33;63.79
59939;BME280;45801;51.810;19.444;2023-02-18T09:12:39;98658.55;;;5.28;64.00
59939;BME280;45801;51.810;19.444;2023-02-18T09:15:06;98657.48;;;5.28;63.99
59939;BME280;45801;51.810;19.444;2023-02-18T09:17:33;98646.65;;;5.30;64.10
59939;BME280;45801;51.810;19.444;2023-02-18T09:19:59;98647.73;;;5.27;64.11
59939;BME280;45801;51.810;19.444;2023-02-18T09:22:26;98646.54;;;5.25;64.32
59939;BME280;45801;51.810;19.444;2023-02-18T09:24:52;98646.45;;;5.23;64.13
59939;BME280;45801;51.810;19.444;2023-02-18T09:27:20;98649.77;;;5.30;64.55
59939;BME280;45801;51.810;19.444;2023-02-18T09:29:47;98653.01;;;5.38;64.31
59939;BME280;45801;51.810;19.444;2023-02-18T09:32:15;98658.73;;;5.44;64.08
59939;BME280;45801;51.810;19.444;2023-02-18T09:34:44;98659.65;;;5.39;64.19
59939;BME280;45801;51.810;19.444;2023-02-18T09:37:10;98658.58;;;5.35;64.04
59939;BME280;45801;51.810;19.444;2023-02-18T09:39:37;98661.97;;;5.27;64.18
59939;BME280;45801;51.810;19.444;2023-02-18T09:42:07;98665.65;;;5.31;64.37
59939;BME280;45801;51.810;19.444;2023-02-18T09:44:54;98666.84;;;5.34;64.17
59939;BME280;45801;51.810;19.444;2023-02-18T09:47:43;98666.95;;;5.36;64.42
59939;BME280;45801;51.810;19.444;2023-02-18T09:50:19;98664.63;;;5.38;64.23
59939;BME280;45801;51.810;19.444;2023-02-18T09:52:47;98664.73;;;5.46;63.86
59939;BME280;45801;51.810;19.444;2023-02-18T09:55:40;98662.40;;;5.48;63.72
59939;BME280;45801;51.810;19.444;2023-02-18T09:58:13;98658.33;;;5.53;63.64
59939;BME280;45801;51.810;19.444;2023-02-18T10:00:46;98658.64;;;5.59;63.90
59939;BME280;45801;51.810;19.444;2023-02-18T10:03:20;98665.41;;;5.59;63.51
59939;BME280;45801;51.810;19.444;2023-02-18T10:06:09;98654.55;;;5.64;63.37
59939;BME280;45801;51.810;19.444;2023-02-18T10:08:48;98650.20;;;5.57;63.01
59939;BME280;45801;51.810;19.444;2023-02-18T10:11:22;98653.79;;;5.52;63.11
59939;BME280;45801;51.810;19.444;2023-02-18T10:13:51;98659.95;;;5.54;63.57
59939;BME280;45801;51.810;19.444;2023-02-18T10:16:21;98660.67;;;5.51;63.18
59939;BME280;45801;51.810;19.444;2023-02-18T10:18:54;98667.76;;;5.48;62.97
59939;BME280;45801;51.810;19.444;2023-02-18T10:21:32;98662.13;;;5.53;63.05
59939;BME280;45801;51.810;19.444;2023-02-18T10:26:53;98649.96;;;5.62;62.72
59939;BME280;45801;51.810;19.444;2023-02-18T10:29:23;98644.77;;;5.63;62.55
59939;BME280;45801;51.810;19.444;2023-02-18T10:32:23;98635.10;;;5.67;62.63
59939;BME280;45801;51.810;19.444;2023-02-18T10:43:38;98609.42;;;5.92;61.74
59939;BME280;45801;51.810;19.444;2023-02-18T10:46:12;98608.11;;;6.03;61.61
59939;BME280;45801;51.810;19.444;2023-02-18T10:51:27;98610.27;;;6.21;60.97
59939;BME280;45801;51.810;19.444;2023-02-18T10:53:54;98613.76;;;6.25;60.35
59939;BME280;45801;51.810;19.444;2023-02-18T10:56:48;98610.02;;;6.23;59.79
59939;BME280;45801;51.810;19.444;2023-02-18T10:59:20;98610.62;;;6.25;59.30
59939;BME280;45801;51.810;19.444;2023-02-18T11:01:58;98605.13;;;6.23;59.59
59939;BME280;45801;51.810;19.444;2023-02-18T11:04:37;98594.77;;;6.28;59.59
59939;BME280;45801;51.810;19.444;2023-02-18T11:07:11;98587.39;;;6.30;59.25
59939;BME280;45801;51.810;19.444;2023-02-18T11:09:49;98584.41;;;6.30;59.34
59939;BME280;45801;51.810;19.444;2023-02-18T11:12:20;98585.40;;;6.32;59.78
59939;BME280;45801;51.810;19.444;2023-02-18T11:17:36;98576.14;;;6.31;58.95
59939;BME280;45801;51.810;19.444;2023-02-18T11:20:31;98571.27;;;6.31;58.98
59939;BME280;45801;51.810;19.444;2023-02-18T11:25:33;98566.47;;;6.26;58.97
59939;BME280;45801;51.810;19.444;2023-02-18T11:30:42;98558.83;;;6.33;58.87
59939;BME280;45801;51.810;19.444;2023-02-18T11:33:17;98557.64;;;6.37;59.01
59939;BME280;45801;51.810;19.444;2023-02-18T11:35:50;98555.23;;;6.44;59.04
59939;BME280;45801;51.810;19.444;2023-02-18T11:38:42;98555.73;;;6.40;58.05
59939;BME280;45801;51.810;19.444;2023-02-18T11:41:16;98548.61;;;6.44;58.23
59939;BME280;45801;51.810;19.444;2023-02-18T11:43:49;98548.92;;;6.55;58.32
59939;BME280;45801;51.810;19.444;2023-02-18T11:46:22;98540.89;;;6.61;58.29
59939;BME280;45801;51.810;19.444;2023-02-18T11:48:50;98534.13;;;6.69;57.89
59939;BME280;45801;51.810;19.444;2023-02-18T11:53:56;98519.46;;;6.75;57.61
59939;BME280;45801;51.810;19.444;2023-02-18T11:56:32;98514.84;;;6.81;57.27
59939;BME280;45801;51.810;19.444;2023-02-18T11:58:59;98504.41;;;6.77;57.30
59939;BME280;45801;51.810;19.444;2023-02-18T12:01:44;98499.00;;;6.69;56.60
59939;BME280;45801;51.810;19.444;2023-02-18T12:04:25;98500.82;;;6.75;56.54
59939;BME280;45801;51.810;19.444;2023-02-18T12:09:40;98497.54;;;6.71;55.99
59939;BME280;45801;51.810;19.444;2023-02-18T12:12:31;98498.33;;;6.77;55.91
59939;BME280;45801;51.810;19.444;2023-02-18T12:14:59;98494.84;;;6.81;56.13
59939;BME280;45801;51.810;19.444;2023-02-18T12:23:20;98477.23;;;7.04;55.42
59939;BME280;45801;51.810;19.444;2023-02-18T12:28:51;98467.88;;;7.12;54.98
59939;BME280;45801;51.810;19.444;2023-02-18T12:31:33;98457.13;;;7.18;54.69
59939;BME280;45801;51.810;19.444;2023-02-18T12:34:25;98448.36;;;7.17;54.57
59939;BME280;45801;51.810;19.444;2023-02-18T12:43:01;98426.05;;;7.24;54.62
59939;BME280;45801;51.810;19.444;2023-02-18T12:46:20;98417.77;;;7.26;54.60
59939;BME280;45801;51.810;19.444;2023-02-18T12:48:42;98418.92;;;7.32;55.23
59939;BME280;45801;51.810;19.444;2023-02-18T12:54:32;98407.60;;;7.40;53.84
59939;BME280;45801;51.810;19.444;2023-02-18T12:57:29;98397.64;;;7.40;53.72
59939;BME280;45801;51.810;19.444;2023-02-18T13:00:29;98390.09;;;7.38;53.12
59939;BME280;45801;51.810;19.444;2023-02-18T13:13:59;98370.06;;;7.39;53.10
59939;BME280;45801;51.810;19.444;2023-02-18T13:16:28;98372.46;;;7.42;53.94
59939;BME280;45801;51.810;19.444;2023-02-18T13:21:43;98361.26;;;7.32;53.83
59939;BME280;45801;51.810;19.444;2023-02-18T13:24:24;98365.00;;;7.26;53.98
59939;BME280;45801;51.810;19.444;2023-02-18T13:26:55;98368.08;;;7.24;54.39
59939;BME280;45801;51.810;19.444;2023-02-18T13:29:38;98371.06;;;7.25;54.51
59939;BME280;45801;51.810;19.444;2023-02-18T13:35:08;98365.69;;;7.21;54.93
59939;BME280;45801;51.810;19.444;2023-02-18T13:40:24;98360.04;;;7.12;55.98
59939;BME280;45801;51.810;19.444;2023-02-18T13:42:53;98359.15;;;6.99;57.13
59939;BME280;45801;51.810;19.444;2023-02-18T13:45:31;98360.89;;;6.95;57.59
59939;BME280;45801;51.810;19.444;2023-02-18T13:47:58;98367.41;;;6.93;57.47
59939;BME280;45801;51.810;19.444;2023-02-18T13:50:29;98372.13;;;6.77;57.87
59939;BME280;45801;51.810;19.444;2023-02-18T13:55:56;98361.66;;;6.68;60.37
59939;BME280;45801;51.810;19.444;2023-02-18T13:58:43;98364.64;;;6.61;61.21
59939;BME280;45801;51.810;19.444;2023-02-18T14:01:19;98369.46;;;6.52;61.58
59939;BME280;45801;51.810;19.444;2023-02-18T14:03:54;98357.21;;;6.51;62.19
59939;BME280;45801;51.810;19.444;2023-02-18T14:09:02;98353.88;;;6.27;64.98
59939;BME280;45801;51.810;19.444;2023-02-18T14:11:38;98340.54;;;6.21;65.69
59939;BME280;45801;51.810;19.444;2023-02-18T14:14:32;98342.70;;;6.04;66.70
59939;BME280;45801;51.810;19.444;2023-02-18T14:22:36;98314.66;;;6.02;68.71
59939;BME280;45801;51.810;19.444;2023-02-18T14:27:39;98326.16;;;5.88;69.15
59939;BME280;45801;51.810;19.444;2023-02-18T14:30:17;98324.61;;;5.74;70.65
59939;BME280;45801;51.810;19.444;2023-02-18T14:32:45;98316.70;;;5.69;71.02
59939;BME280;45801;51.810;19.444;2023-02-18T14:41:10;98314.55;;;5.64;72.01
59939;BME280;45801;51.810;19.444;2023-02-18T14:44:10;98317.28;;;5.59;71.94
59939;BME280;45801;51.810;19.444;2023-02-18T14:49:16;98319.14;;;5.43;73.49
59939;BME280;45801;51.810;19.444;2023-02-18T14:51:47;98315.08;;;5.34;74.27
59939;BME280;45801;51.810;19.444;2023-02-18T14:54:18;98312.07;;;5.19;74.55
59939;BME280;45801;51.810;19.444;2023-02-18T14:56:56;98318.91;;;5.11;75.00
59939;BME280;45801;51.810;19.444;2023-02-18T14:59:26;98316.77;;;4.96;76.04
59939;BME280;45801;51.810;19.444;2023-02-18T15:01:55;98317.48;;;4.95;75.68
59939;BME280;45801;51.810;19.444;2023-02-18T15:04:24;98314.90;;;4.86;77.00
59939;BME280;45801;51.810;19.444;2023-02-18T15:07:00;98314.78;;;4.84;76.62
59939;BME280;45801;51.810;19.444;2023-02-18T15:09:27;98308.33;;;4.73;76.56
59939;BME280;45801;51.810;19.444;2023-02-18T15:12:03;98310.44;;;4.63;76.80
59939;BME280;45801;51.810;19.444;2023-02-18T15:14:34;98308.06;;;4.64;75.47
59939;BME280;45801;51.810;19.444;2023-02-18T15:17:03;98306.38;;;4.52;76.44
59939;BME280;45801;51.810;19.444;2023-02-18T15:19:40;98306.54;;;4.54;75.83